Time;durP1;ratioP1;P1;durP2;ratioP2;P2;SDS_P1;SDS_P2;PMS_P1;PMS_P2;Temp;Humidity;BMP_temperature;BMP_pressure;BME280_temperature;BME280_humidity;BME280_pressure;Samples;Min_cycle;Max_cycle;Signal;HPM_P1;HPM_P2
2022/01/05 00:00:17;;;;;;;69.00;54.17;;;;;;;6.52;74.15;100687.97;2078866;28;20183;-65
2022/01/05 00:01:17;;;;;;;73.10;55.20;;;;;;;6.36;74.06;100671.19;2080135;28;20185;-65
2022/01/05 00:02:18;;;;;;;76.10;59.40;;;;;;;5.84;75.01;100616.47;2080503;28;20642;-65
2022/01/05 00:03:18;;;;;;;74.43;57.93;;;;;;;6.29;75.28;100685.00;2080791;28;20208;-65
2022/01/05 00:04:19;;;;;;;84.00;61.57;;;;;;;6.24;75.66;100684.63;2080447;28;20263;-65
2022/01/05 00:05:20;;;;;;;79.83;60.27;;;;;;;6.22;76.12;100689.75;2080662;28;20582;-65
2022/01/05 00:06:20;;;;;;;80.73;63.13;;;;;;;6.22;75.88;100689.75;2080717;28;20180;-65
2022/01/05 00:07:20;;;;;;;77.90;62.03;;;;;;;6.22;76.41;100689.75;2080058;28;20616;-65
2022/01/05 00:08:24;;;;;;;82.57;62.10;;;;;;;6.30;76.12;100686.56;2079670;28;20177;-65
2022/01/05 00:09:25;;;;;;;82.90;61.53;;;;;;;6.24;75.72;100688.16;2080557;28;20190;-65
2022/01/05 00:10:25;;;;;;;84.07;61.30;;;;;;;6.20;76.01;100681.13;2079496;28;20185;-65
2022/01/05 00:11:26;;;;;;;78.67;58.43;;;;;;;6.25;75.53;100680.69;2080385;28;20188;-65
2022/01/05 00:12:26;;;;;;;79.27;57.77;;;;;;;6.12;76.49;100680.38;2080560;28;20190;-65
2022/01/05 00:13:27;;;;;;;79.47;57.80;;;;;;;6.10;76.24;100687.47;2080691;28;20628;-65
2022/01/05 00:14:27;;;;;;;75.83;57.60;;;;;;;6.10;76.91;100690.97;2080642;28;20184;-65
2022/01/05 00:15:28;;;;;;;73.47;57.33;;;;;;;6.17;76.46;100682.72;2080594;28;20207;-65
2022/01/05 00:16:28;;;;;;;73.67;57.10;;;;;;;6.19;75.95;100674.03;2080511;28;20216;-65
2022/01/05 00:17:29;;;;;;;74.93;56.30;;;;;;;6.17;75.98;100663.44;2080226;28;20191;-65
2022/01/05 00:18:31;;;;;;;73.45;56.38;;;;;;;6.39;75.35;100686.91;2080769;28;20223;-65
2022/01/05 00:19:34;;;;;;;68.95;52.58;;;;;;;6.45;75.51;100684.50;2080664;28;20600;-65
2022/01/05 00:20:34;;;;;;;75.03;56.22;;;;;;;5.32;74.75;100502.00;2079395;28;20193;-65
2022/01/05 00:21:35;;;;;;;77.63;56.47;;;;;;;6.53;74.89;100688.78;2080346;28;20687;-65
2022/01/05 00:22:35;;;;;;;72.37;53.93;;;;;;;6.58;74.65;100683.63;2080678;28;20260;-65
2022/01/05 00:23:36;;;;;;;70.00;55.17;;;;;;;5.66;74.36;100545.03;2080514;28;20184;-65
2022/01/05 00:24:37;;;;;;;71.50;55.10;;;;;;;6.54;74.80;100682.06;2080701;28;20230;-65
2022/01/05 00:25:38;;;;;;;73.05;54.05;;;;;;;6.54;74.63;100679.31;2080636;28;20188;-65
2022/01/05 00:26:38;;;;;;;70.77;54.40;;;;;;;6.56;74.71;100680.50;2080675;28;20702;-65
2022/01/05 00:27:39;;;;;;;68.13;53.17;;;;;;;6.65;74.51;100682.78;2080215;28;20183;-65
2022/01/05 00:28:39;;;;;;;66.70;51.20;;;;;;;6.62;74.59;100680.84;2080512;28;20613;-65
2022/01/05 00:29:40;;;;;;;67.90;52.47;;;;;;;6.39;74.02;100655.81;2080377;28;20216;-65
2022/01/05 00:30:40;;;;;;;71.07;53.40;;;;;;;6.45;74.16;100678.97;2079651;28;20239;-65
2022/01/05 00:31:41;;;;;;;67.53;52.40;;;;;;;5.23;74.37;100471.44;2080219;28;20622;-65
2022/01/05 00:32:41;;;;;;;66.67;52.00;;;;;;;6.43;74.72;100664.84;2080449;28;20182;-65
2022/01/05 00:33:42;;;;;;;67.03;51.20;;;;;;;6.49;74.83;100674.25;2080519;28;20264;-65
2022/01/05 00:34:43;;;;;;;66.70;51.40;;;;;;;6.32;75.10;100655.88;2080725;28;20215;-65
2022/01/05 00:35:43;;;;;;;65.13;50.23;;;;;;;6.43;74.50;100675.84;2080524;28;20176;-65
2022/01/05 00:36:44;;;;;;;58.50;48.37;;;;;;;6.36;74.59;100662.91;2080822;28;20182;-65
2022/01/05 00:37:44;;;;;;;62.27;47.50;;;;;;;6.53;74.34;100673.06;2080165;28;20188;-65
2022/01/05 00:38:45;;;;;;;58.57;47.03;;;;;;;6.58;74.72;100669.88;2080726;28;20707;-65
2022/01/05 00:39:46;;;;;;;62.80;48.33;;;;;;;6.61;74.51;100671.03;2079402;28;20216;-65
2022/01/05 00:40:47;;;;;;;61.83;47.27;;;;;;;6.59;73.68;100668.69;2079105;28;20197;-65
2022/01/05 00:41:47;;;;;;;61.80;48.37;;;;;;;6.59;73.67;100665.94;2080168;28;20188;-65
2022/01/05 00:42:48;;;;;;;60.40;47.17;;;;;;;6.62;73.67;100667.84;2080705;28;20200;-65
2022/01/05 00:43:48;;;;;;;58.37;45.67;;;;;;;6.65;73.04;100667.06;2081729;28;20573;-65
2022/01/05 00:44:49;;;;;;;57.13;44.97;;;;;;;6.67;72.93;100663.91;2082251;28;20180;-65
2022/01/05 00:45:49;;;;;;;58.77;46.53;;;;;;;6.69;72.76;100673.31;2081360;28;20184;-65
2022/01/05 00:46:50;;;;;;;56.70;46.27;;;;;;;6.27;72.77;100602.06;2081672;28;20750;-65
2022/01/05 00:47:51;;;;;;;56.80;45.38;;;;;;;6.72;73.19;100666.22;2081549;28;20237;-65
2022/01/05 00:48:51;;;;;;;55.80;44.13;;;;;;;6.73;72.73;100663.06;2082219;28;20256;-65
2022/01/05 00:49:52;;;;;;;58.87;46.43;;;;;;;6.74;72.91;100667.38;2081324;28;20631;-65
2022/01/05 00:50:52;;;;;;;57.50;45.63;;;;;;;6.72;72.53;100671.75;2081317;28;20188;-65
2022/01/05 00:51:53;;;;;;;65.30;48.53;;;;;;;6.67;72.27;100667.41;2081752;28;20212;-65
2022/01/05 00:53:00;;;;;;;66.67;52.13;;;;;;;6.62;72.58;100670.59;2082074;28;20698;-65
2022/01/05 00:54:00;;;;;;;64.30;51.90;;;;;;;6.55;73.28;100670.66;2081993;28;20158;-65
2022/01/05 00:55:02;;;;;;;63.13;51.13;;;;;;;6.64;73.46;100664.69;2082261;28;20255;-65
2022/01/05 00:56:03;;;;;;;62.35;50.47;;;;;;;6.67;73.00;100663.91;2081994;28;20233;-65
2022/01/05 00:57:04;;;;;;;67.88;52.72;;;;;;;6.69;72.54;100670.56;2082068;28;20242;-65
2022/01/05 00:58:04;;;;;;;66.20;53.10;;;;;;;6.66;72.56;100670.59;2081685;28;20271;-65
2022/01/05 00:59:05;;;;;;;67.77;53.33;;;;;;;6.64;72.99;100667.44;2082075;28;20697;-65
2022/01/05 01:00:06;;;;;;;67.87;52.43;;;;;;;6.24;73.03;100605.59;2080812;28;20178;-65
2022/01/05 01:01:07;;;;;;;65.20;51.45;;;;;;;6.68;73.31;100665.47;2081858;28;20183;-65
2022/01/05 01:02:07;;;;;;;67.60;51.93;;;;;;;6.71;72.93;100668.19;2081741;28;20184;-65
2022/01/05 01:03:08;;;;;;;63.17;49.60;;;;;;;6.71;72.51;100668.19;2082048;28;20223;-66
2022/01/05 01:04:09;;;;;;;61.53;48.87;;;;;;;6.72;72.48;100664.25;2081571;28;20270;-66
2022/01/05 01:05:09;;;;;;;65.93;51.03;;;;;;;6.64;72.45;100648.97;2082036;28;20278;-65
2022/01/05 01:06:10;;;;;;;60.77;48.80;;;;;;;6.75;72.19;100668.16;2081846;28;20665;-65
2022/01/05 01:07:11;;;;;;;62.15;48.78;;;;;;;5.71;72.05;100510.81;2082094;28;20209;-65
2022/01/05 01:08:12;;;;;;;61.03;48.30;;;;;;;6.72;72.27;100660.72;2081523;28;20181;-65
2022/01/05 01:09:13;;;;;;;60.63;46.90;;;;;;;6.72;72.16;100663.47;2081866;28;20185;-66
2022/01/05 01:10:14;;;;;;;60.07;48.13;;;;;;;6.25;71.37;100590.66;2080588;28;20200;-65
2022/01/05 01:11:14;;;;;;;58.08;46.22;;;;;;;6.57;70.84;100646.25;2081637;28;20752;-65
2022/01/05 01:12:15;;;;;;;60.03;46.57;;;;;;;6.55;71.15;100643.13;2081460;28;20207;-65
2022/01/05 01:13:17;;;;;;;58.70;46.23;;;;;;;6.69;70.66;100659.56;2081961;28;20264;-65
2022/01/05 01:14:17;;;;;;;61.58;47.15;;;;;;;6.67;70.69;100661.91;2081860;28;20177;-65
2022/01/05 01:15:18;;;;;;;60.97;49.30;;;;;;;6.65;71.47;100663.50;2081916;28;20177;-65
2022/01/05 01:16:19;;;;;;;52.97;43.33;;;;;;;6.63;70.70;100663.13;2081669;28;20653;-65
2022/01/05 01:17:22;;;;;;;59.60;46.05;;;;;;;6.64;70.25;100659.19;2081742;28;20670;-65
2022/01/05 01:18:22;;;;;;;60.15;47.33;;;;;;;6.63;70.42;100663.94;2081597;28;20182;-65
2022/01/05 01:19:23;;;;;;;56.13;43.40;;;;;;;5.79;70.36;100532.38;2081931;28;20184;-65
2022/01/05 01:20:23;;;;;;;50.33;41.10;;;;;;;6.59;70.04;100657.66;2080559;28;20196;-65
2022/01/05 01:21:24;;;;;;;52.47;41.70;;;;;;;5.31;69.47;100454.53;2081524;28;20568;-65
2022/01/05 01:22:27;;;;;;;56.10;45.40;;;;;;;6.54;69.60;100654.53;2081862;28;20672;-65
2022/01/05 01:23:28;;;;;;;64.15;49.05;;;;;;;6.54;70.11;100652.59;2081741;28;20181;-65
2022/01/05 01:24:28;;;;;;;57.67;46.43;;;;;;;6.53;70.75;100659.28;2081893;28;20205;-65
2022/01/05 01:25:29;;;;;;;52.87;40.37;;;;;;;6.53;70.12;100651.03;2081754;28;20183;-65
2022/01/05 01:26:30;;;;;;;51.47;41.80;;;;;;;6.50;69.43;100656.53;2081766;28;20188;-65
2022/01/05 01:27:31;;;;;;;54.47;42.10;;;;;;;5.48;69.05;100503.09;2081360;28;20268;-65
2022/01/05 01:28:32;;;;;;;56.07;43.23;;;;;;;6.37;68.68;100653.50;2081726;28;20193;-65
2022/01/05 01:29:32;;;;;;;54.03;41.67;;;;;;;6.31;68.95;100644.06;2081772;28;20472;-65
2022/01/05 01:30:34;;;;;;;59.17;46.50;;;;;;;6.27;69.15;100651.59;2080616;28;20260;-65
2022/01/05 01:31:34;;;;;;;61.90;47.95;;;;;;;6.19;69.36;100652.00;2081364;28;20183;-65
2022/01/05 01:32:35;;;;;;;64.23;50.50;;;;;;;6.10;71.47;100652.47;2081701;28;20185;-65
2022/01/05 01:33:35;;;;;;;62.30;49.47;;;;;;;6.09;72.01;100645.41;2080912;28;20298;-65
2022/01/05 01:34:36;;;;;;;66.10;51.70;;;;;;;6.05;72.42;100652.88;2080941;28;20255;-65
2022/01/05 01:35:37;;;;;;;85.50;50.33;;;;;;;6.02;71.45;100653.69;2081084;28;20548;-65
2022/01/05 01:36:37;;;;;;;60.27;49.27;;;;;;;5.99;71.60;100650.94;2081851;28;20189;-65
2022/01/05 01:37:38;;;;;;;61.57;50.83;;;;;;;5.94;72.28;100651.38;2081313;28;20188;-65
2022/01/05 01:38:39;;;;;;;74.73;57.17;;;;;;;5.85;72.51;100646.28;2081776;28;20180;-65
2022/01/05 01:39:39;;;;;;;57.42;47.03;;;;;;;5.79;72.06;100636.88;2081643;28;20177;-65
2022/01/05 01:40:40;;;;;;;54.27;43.67;;;;;;;5.89;71.45;100649.06;2080406;28;20186;-65
2022/01/05 01:41:41;;;;;;;59.03;48.40;;;;;;;5.38;71.99;100566.38;2080639;28;20177;-65
2022/01/05 01:42:41;;;;;;;56.80;44.83;;;;;;;5.91;71.68;100644.72;2081136;28;20188;-65
2022/01/05 01:43:42;;;;;;;66.13;52.57;;;;;;;5.92;72.17;100642.72;2081658;28;20181;-65
2022/01/05 01:44:43;;;;;;;55.03;42.77;;;;;;;5.89;70.33;100640.81;2081753;28;20176;-65
2022/01/05 01:45:43;;;;;;;52.90;42.03;;;;;;;5.77;70.47;100642.00;2081653;28;20206;-65
2022/01/05 01:46:44;;;;;;;53.73;41.53;;;;;;;5.01;70.45;100506.44;2081784;28;20190;-65
2022/01/05 01:47:46;;;;;;;50.43;40.23;;;;;;;5.88;69.53;100648.25;2081160;28;20660;-65
2022/01/05 01:48:46;;;;;;;54.72;43.40;;;;;;;5.83;69.38;100651.41;2081692;28;20632;-65
2022/01/05 01:49:47;;;;;;;53.70;41.43;;;;;;;5.85;69.56;100651.78;2081074;28;20277;-65
2022/01/05 01:50:47;;;;;;;56.63;42.83;;;;;;;5.82;69.45;100643.56;2081089;28;20611;-65
2022/01/05 01:51:48;;;;;;;67.17;51.60;;;;;;;5.79;70.15;100652.59;2081194;28;20188;-65
2022/01/05 01:52:48;;;;;;;60.37;46.50;;;;;;;5.78;70.09;100643.56;2073486;28;20189;-65
2022/01/05 01:53:50;;;;;;;65.30;50.00;;;;;;;5.79;70.42;100641.59;2073310;28;20203;-65
2022/01/05 01:54:51;;;;;;;67.85;51.55;;;;;;;5.81;70.50;100640.06;2073247;28;20667;-65
2022/01/05 01:55:54;;;;;;;62.42;48.47;;;;;;;5.80;70.28;100643.97;2073257;28;20212;-65
2022/01/05 01:56:55;;;;;;;58.95;46.22;;;;;;;5.79;69.65;100647.88;2073473;28;20189;-65
2022/01/05 01:57:56;;;;;;;57.35;43.88;;;;;;;4.42;68.98;100429.75;2072879;28;20204;-65
2022/01/05 01:58:57;;;;;;;64.20;47.83;;;;;;;5.77;69.46;100644.75;2073507;28;20707;-65
2022/01/05 01:59:58;;;;;;;55.63;44.00;;;;;;;5.74;69.41;100642.78;2072747;28;20179;-65
2022/01/05 02:00:58;;;;;;;62.83;47.35;;;;;;;5.73;69.58;100640.41;2072756;28;20188;-65
2022/01/05 02:01:59;;;;;;;81.67;59.63;;;;;;;5.69;70.03;100645.16;2073243;28;20184;-65
2022/01/05 02:03:00;;;;;;;84.90;62.13;;;;;;;5.58;71.42;100622.41;2073373;28;20236;-65
2022/01/05 02:04:00;;;;;;;58.90;47.10;;;;;;;5.73;70.91;100656.91;2074654;28;20176;-65
2022/01/05 02:05:03;;;;;;;67.87;50.53;;;;;;;5.77;70.06;100653.00;2081426;28;20185;-65
2022/01/05 02:06:03;;;;;;;66.53;50.97;;;;;;;5.58;70.34;100642.44;2081433;28;20203;-65
2022/01/05 02:07:04;;;;;;;74.43;57.83;;;;;;;5.72;70.69;100647.09;2081676;28;20201;-65
2022/01/05 02:08:04;;;;;;;65.40;50.10;;;;;;;5.73;69.62;100651.41;2081274;28;20260;-65
2022/01/05 02:09:05;;;;;;;60.10;46.83;;;;;;;5.75;69.28;100657.31;2081424;28;20250;-65
2022/01/05 02:10:09;;;;;;;69.10;53.07;;;;;;;4.65;69.65;100483.00;2080149;28;20315;-65
2022/01/05 02:11:12;;;;;;;81.35;60.08;;;;;;;5.61;70.27;100633.41;2081236;28;20423;-65
2022/01/05 02:12:12;;;;;;;63.92;48.70;;;;;;;5.24;69.93;100575.41;2081301;28;20180;-65
2022/01/05 02:13:13;;;;;;;60.97;45.60;;;;;;;5.58;69.54;100625.16;2081527;28;20180;-65
2022/01/05 02:14:13;;;;;;;64.50;47.80;;;;;;;5.69;69.57;100643.19;2081441;28;20181;-65
2022/01/05 02:15:14;;;;;;;64.83;50.20;;;;;;;4.50;69.59;100464.22;2081529;28;20655;-65
2022/01/05 02:16:25;;;;;;;57.10;43.77;;;;;;;5.68;68.93;100636.13;2081223;28;20238;-65
2022/01/05 02:17:43;;;;;;;58.67;45.28;;;;;;;5.50;68.75;100626.38;2081120;28;20600;-65
2022/01/05 02:18:59;;;;;;;66.43;46.45;;;;;;;5.60;69.25;100636.56;2081533;28;20169;-65
2022/01/05 02:19:59;;;;;;;58.85;45.45;;;;;;;5.55;69.09;100628.72;2080626;28;20161;-65
2022/01/05 02:21:09;;;;;;;61.83;46.50;;;;;;;5.50;69.24;100637.38;2080644;28;20177;-65
2022/01/05 02:22:09;;;;;;;63.67;47.33;;;;;;;4.87;69.02;100538.66;2081343;28;20554;-65
2022/01/05 02:23:10;;;;;;;61.30;46.40;;;;;;;5.09;68.73;100581.38;2081439;28;20185;-65
2022/01/05 02:24:11;;;;;;;61.83;46.70;;;;;;;4.63;69.15;100506.53;2081035;28;20169;-65
2022/01/05 02:25:12;;;;;;;65.55;50.20;;;;;;;5.45;69.05;100638.59;2081449;28;20169;-65
2022/01/05 02:26:13;;;;;;;66.00;48.88;;;;;;;5.45;68.92;100637.78;2081319;28;20181;-65
2022/01/05 02:27:15;;;;;;;64.77;49.00;;;;;;;5.41;69.43;100637.81;2081174;28;20172;-65
2022/01/05 02:28:15;;;;;;;63.30;49.90;;;;;;;4.72;68.83;100526.13;2080861;28;20177;-65
2022/01/05 02:29:16;;;;;;;64.47;48.37;;;;;;;5.19;69.17;100611.53;2081351;28;20173;-65
2022/01/05 02:30:22;;;;;;;61.47;45.57;;;;;;;5.35;69.39;100636.66;2079987;28;20204;-65
2022/01/05 02:31:23;;;;;;;61.25;45.35;;;;;;;5.33;68.53;100632.72;2080981;28;20562;-65
2022/01/05 02:32:23;;;;;;;56.60;44.20;;;;;;;5.30;69.05;100634.31;2081143;28;20180;-65
2022/01/05 02:33:25;;;;;;;56.57;43.20;;;;;;;5.27;69.08;100629.59;2081304;28;20251;-65
2022/01/05 02:34:25;;;;;;;63.42;45.30;;;;;;;5.27;68.66;100624.09;2081224;28;20184;-65
2022/01/05 02:35:26;;;;;;;61.27;45.87;;;;;;;4.22;69.21;100456.03;2081138;28;20283;-64
2022/01/05 02:36:27;;;;;;;61.40;44.17;;;;;;;5.22;68.51;100615.47;2081312;28;20651;-65
2022/01/05 02:37:28;;;;;;;57.35;43.85;;;;;;;5.27;68.88;100621.34;2080894;28;20211;-65
2022/01/05 02:38:28;;;;;;;59.77;45.77;;;;;;;5.24;68.47;100619.38;2081238;28;20196;-65
2022/01/05 02:39:29;;;;;;;58.77;45.80;;;;;;;5.24;69.04;100618.59;2081139;28;20188;-65
2022/01/05 02:40:29;;;;;;;60.57;46.00;;;;;;;5.15;69.06;100608.03;2080082;28;20219;-65
2022/01/05 02:41:29;;;;;;;59.27;44.50;;;;;;;5.19;68.38;100617.03;2080865;28;20180;-65
2022/01/05 02:42:30;;;;;;;62.27;47.80;;;;;;;5.15;68.97;100610.78;2081306;28;20199;-65
2022/01/05 02:43:30;;;;;;;64.47;47.03;;;;;;;5.16;69.56;100614.31;2081189;28;20241;-65
2022/01/05 02:44:31;;;;;;;65.00;48.33;;;;;;;5.17;70.02;100611.16;2081366;28;20188;-65
2022/01/05 02:45:31;;;;;;;62.07;46.67;;;;;;;5.03;70.04;100594.69;2081133;28;20184;-65
2022/01/05 02:46:32;;;;;;;60.47;47.50;;;;;;;5.19;70.53;100622.53;2080579;28;20222;-65
2022/01/05 02:47:33;;;;;;;67.43;45.77;;;;;;;5.19;70.05;100608.03;2080299;28;20734;-65
2022/01/05 02:48:34;;;;;;;61.33;46.83;;;;;;;5.18;70.42;100609.22;2081164;28;20424;-65
2022/01/05 02:49:34;;;;;;;61.23;45.93;;;;;;;5.21;70.06;100609.19;2081122;28;20181;-65
2022/01/05 02:50:35;;;;;;;63.17;46.10;;;;;;;5.20;69.86;100615.88;2079975;28;20567;-65
2022/01/05 02:51:35;;;;;;;61.10;44.97;;;;;;;5.15;69.81;100610.78;2080706;28;20184;-65
2022/01/05 02:52:36;;;;;;;56.43;44.53;;;;;;;5.17;69.17;100611.16;2080881;28;20198;-65
2022/01/05 02:53:37;;;;;;;62.03;45.50;;;;;;;5.17;69.57;100616.66;2081106;28;20232;-65
2022/01/05 02:54:38;;;;;;;65.28;44.13;;;;;;;4.14;69.40;100465.44;2081192;28;20180;-65
2022/01/05 02:55:38;;;;;;;58.90;44.53;;;;;;;5.16;68.88;100617.03;2080994;28;20544;-65
2022/01/05 02:56:38;;;;;;;56.07;43.13;;;;;;;4.92;69.34;100609.66;2081109;28;20208;-65
2022/01/05 02:57:39;;;;;;;59.07;43.23;;;;;;;5.13;69.14;100621.38;2080742;28;20188;-65
2022/01/05 02:58:40;;;;;;;57.00;43.77;;;;;;;5.13;69.26;100643.34;2081109;28;20565;-65
2022/01/05 02:59:41;;;;;;;59.27;45.10;;;;;;;5.12;70.04;100611.56;2081004;28;20184;-64
2022/01/05 03:00:42;;;;;;;61.37;43.77;;;;;;;5.13;69.11;100610.38;2079996;28;20674;-65
2022/01/05 03:01:42;;;;;;;59.27;43.47;;;;;;;5.14;69.09;100617.44;2081003;28;20747;-65
2022/01/05 03:02:44;;;;;;;56.07;41.90;;;;;;;5.14;68.81;100650.41;2081074;28;20267;-64
2022/01/05 03:03:44;;;;;;;57.25;43.92;;;;;;;5.09;69.57;100609.63;2080781;28;20663;-66
2022/01/05 03:04:45;;;;;;;51.87;43.07;;;;;;;5.11;71.07;100621.00;2081080;28;20615;-65
2022/01/05 03:05:45;;;;;;;55.87;41.73;;;;;;;5.16;69.81;100614.31;2080386;28;20567;-65
2022/01/05 03:06:46;;;;;;;54.53;43.10;;;;;;;5.06;69.78;100606.88;2081009;28;20176;-65
2022/01/05 03:07:46;;;;;;;54.30;43.03;;;;;;;4.02;70.75;100447.44;2080615;28;20177;-65
2022/01/05 03:08:47;;;;;;;56.40;44.00;;;;;;;5.14;70.33;100622.16;2081061;28;20181;-65
2022/01/05 03:09:47;;;;;;;57.20;44.83;;;;;;;4.29;70.52;100505.41;2080316;28;20237;-65
2022/01/05 03:10:48;;;;;;;55.80;45.33;;;;;;;5.04;71.06;100618.25;2080347;28;20187;-64
2022/01/05 03:11:48;;;;;;;57.30;45.07;;;;;;;5.00;71.54;100617.47;2080686;28;20180;-65
2022/01/05 03:12:49;;;;;;;58.80;45.70;;;;;;;3.59;71.71;100395.75;2080940;28;20212;-65
2022/01/05 03:13:50;;;;;;;54.73;44.63;;;;;;;5.02;71.44;100617.84;2080877;28;20426;-65
2022/01/05 03:14:50;;;;;;;54.47;43.13;;;;;;;5.02;71.34;100617.09;2081088;28;20243;-65
2022/01/05 03:15:52;;;;;;;56.87;44.33;;;;;;;5.03;70.99;100611.19;2080768;28;20184;-65
2022/01/05 03:16:53;;;;;;;55.55;42.85;;;;;;;4.60;70.80;100546.53;2081073;28;20567;-65
2022/01/05 03:17:53;;;;;;;56.13;42.40;;;;;;;5.06;70.57;100609.59;2080477;28;20215;-65
2022/01/05 03:18:54;;;;;;;53.93;42.37;;;;;;;5.04;70.54;100607.28;2081100;28;20187;-65
2022/01/05 03:19:54;;;;;;;52.53;41.63;;;;;;;5.06;70.29;100602.16;2079622;28;20291;-65
2022/01/05 03:20:55;;;;;;;50.73;40.87;;;;;;;5.05;70.25;100610.78;2079501;28;20187;-65
2022/01/05 03:21:55;;;;;;;53.60;41.53;;;;;;;4.96;70.24;100589.25;2080791;28;20182;-65
2022/01/05 03:23:00;;;;;;;51.60;40.57;;;;;;;4.24;69.34;100481.91;2081093;28;20176;-65
2022/01/05 03:24:00;;;;;;;49.38;37.70;;;;;;;5.07;69.21;100605.72;2080148;28;20221;-64
2022/01/05 03:25:01;;;;;;;50.17;40.03;;;;;;;5.05;70.23;100600.59;2080437;28;20750;-65
2022/01/05 03:26:02;;;;;;;49.90;39.53;;;;;;;5.07;71.49;100603.72;2080870;28;20175;-65
2022/01/05 03:27:03;;;;;;;53.17;40.70;;;;;;;4.88;70.91;100571.19;2080945;28;20183;-65
2022/01/05 03:28:03;;;;;;;53.47;40.83;;;;;;;5.04;70.51;100588.06;2080345;28;20181;-65
2022/01/05 03:29:04;;;;;;;53.90;41.23;;;;;;;5.12;70.85;100610.81;2080869;28;20176;-65
2022/01/05 03:30:05;;;;;;;51.90;38.90;;;;;;;5.11;69.15;100606.47;2079895;28;20269;-65
2022/01/05 03:31:06;;;;;;;49.25;38.47;;;;;;;5.12;69.63;100606.06;2080602;28;20180;-65
2022/01/05 03:32:06;;;;;;;49.83;39.30;;;;;;;5.12;70.15;100608.81;2080720;28;20180;-65
2022/01/05 03:33:09;;;;;;;51.58;39.03;;;;;;;5.11;69.86;100607.25;2080966;28;20175;-65
2022/01/05 03:34:16;;;;;;;51.88;39.58;;;;;;;5.11;69.17;100607.25;2080006;28;20254;-65
2022/01/05 03:35:17;;;;;;;48.22;39.75;;;;;;;4.47;69.33;100519.91;2080359;28;20236;-65
2022/01/05 03:36:18;;;;;;;48.53;38.57;;;;;;;5.11;69.23;100609.22;2080596;28;20221;-65
2022/01/05 03:37:18;;;;;;;53.77;41.80;;;;;;;5.05;70.19;100610.78;2080939;28;20175;-65
2022/01/05 03:38:19;;;;;;;55.23;41.10;;;;;;;4.89;70.13;100596.69;2080375;28;20185;-65
2022/01/05 03:39:20;;;;;;;48.67;38.50;;;;;;;5.02;69.61;100612.38;2080859;28;20189;-65
2022/01/05 03:40:21;;;;;;;49.90;40.87;;;;;;;4.98;70.34;100610.81;2079467;28;20191;-65
2022/01/05 03:41:21;;;;;;;50.57;41.10;;;;;;;4.93;71.54;100613.97;2080603;28;20190;-65
2022/01/05 03:42:22;;;;;;;50.57;39.97;;;;;;;4.92;71.39;100604.94;2080694;28;20597;-65
2022/01/05 03:43:23;;;;;;;49.30;39.40;;;;;;;4.71;71.11;100572.00;2080830;28;20169;-65
2022/01/05 03:44:23;;;;;;;52.83;39.35;;;;;;;4.93;69.48;100609.25;2080016;28;20179;-65
2022/01/05 03:45:24;;;;;;;49.37;37.00;;;;;;;4.94;69.81;100601.78;2080160;28;20181;-64
2022/01/05 03:46:24;;;;;;;45.13;35.90;;;;;;;4.93;70.50;100613.97;2080719;28;20178;-65
2022/01/05 03:47:25;;;;;;;44.73;35.63;;;;;;;4.95;70.90;100604.16;2080569;28;20213;-65
2022/01/05 03:48:25;;;;;;;44.70;35.07;;;;;;;4.70;71.02;100575.94;2080674;28;20601;-65
2022/01/05 03:49:26;;;;;;;47.67;37.00;;;;;;;4.40;70.81;100508.91;2080803;28;20175;-65
2022/01/05 03:50:27;;;;;;;50.53;38.50;;;;;;;4.74;69.44;100564.94;2079462;28;20211;-65
2022/01/05 03:51:27;;;;;;;49.13;38.43;;;;;;;5.00;69.12;100605.69;2080426;28;20179;-65
2022/01/05 03:52:28;;;;;;;50.40;38.53;;;;;;;4.92;68.42;100618.66;2080477;28;20181;-65
2022/01/05 03:53:28;;;;;;;47.57;35.87;;;;;;;4.32;68.20;100507.38;2080724;28;20176;-64
2022/01/05 03:54:29;;;;;;;47.40;35.77;;;;;;;4.96;69.08;100607.66;2080771;28;20180;-65
2022/01/05 03:55:30;;;;;;;48.90;36.53;;;;;;;4.38;68.92;100534.03;2080685;28;20567;-65
2022/01/05 03:56:30;;;;;;;45.08;34.85;;;;;;;4.83;70.92;100621.00;2080188;28;20173;-65
2022/01/05 03:57:32;;;;;;;45.03;34.70;;;;;;;4.79;72.18;100611.22;2071420;28;20184;-65
2022/01/05 03:58:33;;;;;;;47.03;35.97;;;;;;;4.80;72.54;100615.53;2080178;28;20175;-65
2022/01/05 03:59:33;;;;;;;46.63;36.00;;;;;;;4.81;72.23;100617.88;2080670;28;20182;-65
2022/01/05 04:00:39;;;;;;;45.47;34.67;;;;;;;4.79;72.49;100624.94;2079480;28;20175;-65
2022/01/05 04:01:39;;;;;;;42.22;34.10;;;;;;;4.80;72.38;100615.53;2080473;28;20166;-65
2022/01/05 04:02:41;;;;;;;45.07;35.17;;;;;;;3.54;72.08;100423.53;2080702;28;20737;-65
2022/01/05 04:03:42;;;;;;;44.60;36.40;;;;;;;4.78;71.63;100612.41;2080581;28;20181;-65
2022/01/05 04:04:42;;;;;;;47.70;36.07;;;;;;;4.28;71.63;100547.72;2080426;28;20236;-65
2022/01/05 04:05:43;;;;;;;45.27;36.23;;;;;;;4.78;71.54;100602.19;2080572;28;20183;-65
2022/01/05 04:06:44;;;;;;;45.42;35.08;;;;;;;4.80;70.34;100605.34;2080600;28;20673;-65
2022/01/05 04:07:44;;;;;;;43.50;33.77;;;;;;;4.75;70.38;100599.44;2080250;28;20551;-65
2022/01/05 04:08:45;;;;;;;42.60;32.87;;;;;;;4.79;70.87;100598.28;2080765;28;20181;-65
2022/01/05 04:09:45;;;;;;;47.33;34.20;;;;;;;4.81;70.56;100595.94;2080104;28;20208;-65
2022/01/05 04:10:46;;;;;;;48.53;36.73;;;;;;;4.81;70.59;100593.19;2080043;28;20291;-65
2022/01/05 04:11:46;;;;;;;55.93;38.67;;;;;;;4.42;70.81;100526.53;2080153;28;20180;-65
2022/01/05 04:12:48;;;;;;;62.33;42.80;;;;;;;4.86;69.90;100587.28;2080787;28;20184;-65
2022/01/05 04:13:48;;;;;;;57.55;37.65;;;;;;;4.76;69.87;100571.63;2080482;28;20203;-65
2022/01/05 04:14:49;;;;;;;48.50;34.60;;;;;;;4.85;70.18;100584.94;2080767;28;20731;-65
2022/01/05 04:15:49;;;;;;;58.83;38.47;;;;;;;4.81;70.54;100584.16;2080365;28;20176;-65
2022/01/05 04:16:49;;;;;;;61.97;41.20;;;;;;;4.70;69.74;100577.88;2080725;28;20321;-65
2022/01/05 04:17:50;;;;;;;66.17;42.97;;;;;;;4.79;69.19;100587.31;2081568;28;20191;-65
2022/01/05 04:18:50;;;;;;;45.33;35.70;;;;;;;4.75;70.48;100577.50;2082403;28;20173;-65
2022/01/05 04:19:51;;;;;;;50.63;37.90;;;;;;;4.27;70.99;100516.00;2081623;28;20666;-65
2022/01/05 04:20:52;;;;;;;58.77;41.33;;;;;;;3.07;71.21;100320.56;2081343;28;20266;-65
2022/01/05 04:21:52;;;;;;;50.60;38.00;;;;;;;4.78;70.93;100590.44;2082100;28;20191;-65
2022/01/05 04:22:52;;;;;;;45.57;34.03;;;;;;;4.78;71.80;100585.72;2082481;28;20270;-65
2022/01/05 04:23:53;;;;;;;53.20;39.63;;;;;;;4.72;71.10;100567.31;2081429;28;20181;-65
2022/01/05 04:24:53;;;;;;;75.23;49.03;;;;;;;4.84;70.24;100584.16;2081833;28;20188;-65
2022/01/05 04:25:54;;;;;;;56.20;39.73;;;;;;;4.26;69.83;100493.25;2082134;28;20191;-65
2022/01/05 04:26:55;;;;;;;43.87;33.17;;;;;;;4.69;70.38;100568.88;2082410;28;20191;-65
2022/01/05 04:27:55;;;;;;;64.00;43.63;;;;;;;4.78;69.87;100572.00;2081547;28;20223;-65
2022/01/05 04:28:56;;;;;;;57.20;39.70;;;;;;;4.85;69.37;100588.47;2082350;28;20286;-65
2022/01/05 04:29:56;;;;;;;45.80;33.13;;;;;;;4.86;69.69;100583.75;2081441;28;20192;-65
2022/01/05 04:30:57;;;;;;;52.50;38.43;;;;;;;4.61;69.59;100545.34;2081461;28;20745;-65
2022/01/05 04:31:57;;;;;;;57.30;37.90;;;;;;;4.85;69.04;100596.72;2081995;28;20169;-65
2022/01/05 04:32:58;;;;;;;57.60;39.20;;;;;;;4.85;68.84;100588.47;2082324;28;20756;-65
2022/01/05 04:33:58;;;;;;;57.07;38.33;;;;;;;4.22;68.45;100497.97;2082072;28;20267;-65
2022/01/05 04:34:59;;;;;;;58.77;38.03;;;;;;;4.84;67.99;100592.41;2082337;28;20180;-65
2022/01/05 04:35:59;;;;;;;55.70;38.40;;;;;;;4.77;68.19;100583.38;2082034;28;20176;-65
2022/01/05 04:37:00;;;;;;;53.13;37.30;;;;;;;4.82;67.96;100589.25;2082092;28;20180;-65
2022/01/05 04:38:00;;;;;;;55.93;37.83;;;;;;;4.81;67.80;100589.63;2081759;28;20169;-65
2022/01/05 04:39:01;;;;;;;50.00;36.47;;;;;;;4.77;69.45;100588.88;2082257;28;20173;-65
2022/01/05 04:40:03;;;;;;;51.23;35.30;;;;;;;4.76;69.64;100587.28;2081076;28;20543;-65